createdAt,value
2018-12-12T00:00:11.526Z,3.8
2018-12-12T00:01:10.384Z,4.0
2018-12-12T00:02:10.819Z,3.4
2018-12-12T00:03:10.434Z,3.4
2018-12-12T00:04:10.671Z,3.3
2018-12-12T00:05:10.655Z,3.7
2018-12-12T00:06:10.722Z,4.3
2018-12-12T00:07:10.976Z,3.1
2018-12-12T00:08:10.549Z,2.9
2018-12-12T00:09:10.404Z,3.1
2018-12-12T00:10:10.895Z,2.8
2018-12-12T00:11:10.449Z,3.1
2018-12-12T00:12:10.844Z,3.2
2018-12-12T00:13:10.688Z,3.9
2018-12-12T00:14:10.408Z,3.5
2018-12-12T00:15:10.467Z,4.4
2018-12-12T00:16:10.639Z,3.8
2018-12-12T00:17:10.617Z,3.9
2018-12-12T00:18:10.403Z,4.3
2018-12-12T00:19:10.426Z,3.4
2018-12-12T00:20:10.682Z,4.4
2018-12-12T00:21:12.914Z,3.5
2018-12-12T00:22:12.012Z,3.0
2018-12-12T00:23:10.563Z,3.6
2018-12-12T00:24:10.684Z,3.7
2018-12-12T00:25:10.894Z,3.9
2018-12-12T00:26:10.877Z,3.9
2018-12-12T00:27:10.688Z,3.1
2018-12-12T00:28:10.464Z,3.3
2018-12-12T00:29:10.743Z,3.6
2018-12-12T00:30:10.927Z,3.5
2018-12-12T00:31:11.141Z,3.1
2018-12-12T00:32:10.699Z,3.1
2018-12-12T00:33:10.951Z,4.3
2018-12-12T00:34:10.478Z,3.3
2018-12-12T00:35:10.479Z,4.1
2018-12-12T00:36:10.484Z,5.1
2018-12-12T00:37:10.915Z,5.0
2018-12-12T00:38:10.631Z,4.8
2018-12-12T00:39:10.698Z,5.5
2018-12-12T00:40:10.951Z,5.0
2018-12-12T00:41:10.938Z,6.4
2018-12-12T00:42:10.743Z,5.4
2018-12-12T00:43:10.470Z,6.0
2018-12-12T00:44:10.486Z,6.7
2018-12-12T00:45:10.983Z,5.5
2018-12-12T00:46:10.499Z,6.8
2018-12-12T00:47:10.706Z,6.2
2018-12-12T00:48:10.513Z,5.4
2018-12-12T00:49:11.032Z,5.9
2018-12-12T00:50:10.492Z,6.3
2018-12-12T00:51:10.736Z,5.1
2018-12-12T00:52:10.937Z,6.1
2018-12-12T00:53:10.816Z,5.1
2018-12-12T00:54:10.501Z,6.5
2018-12-12T00:55:10.706Z,5.9
2018-12-12T00:56:10.555Z,6.7
2018-12-12T00:57:11.186Z,7.7
2018-12-12T00:58:11.245Z,6.1
2018-12-12T00:59:10.749Z,5.3
2018-12-12T01:00:10.730Z,6.7
2018-12-12T01:01:10.577Z,6.6
2018-12-12T01:02:10.980Z,5.8
2018-12-12T01:03:10.716Z,5.8
2018-12-12T01:04:10.516Z,5.6
2018-12-12T01:05:10.597Z,6.3
2018-12-12T01:06:11.022Z,6.4
2018-12-12T01:07:10.610Z,6.3
2018-12-12T01:08:10.843Z,6.5
2018-12-12T01:09:10.986Z,6.0
2018-12-12T01:10:10.515Z,7.2
2018-12-12T01:11:10.758Z,6.0
2018-12-12T01:12:10.529Z,7.2
2018-12-12T01:13:10.529Z,6.7
2018-12-12T01:14:10.978Z,5.6
2018-12-12T01:15:10.702Z,7.7
2018-12-12T01:16:11.013Z,6.1
2018-12-12T01:17:10.577Z,6.9
2018-12-12T01:18:11.007Z,6.6
2018-12-12T01:19:10.789Z,6.4
2018-12-12T01:20:10.722Z,7.1
2018-12-12T01:21:10.781Z,6.8
2018-12-12T01:22:10.995Z,5.7
2018-12-12T01:23:11.064Z,7.1
2018-12-12T01:24:10.776Z,6.1
2018-12-12T01:25:10.815Z,6.3
2018-12-12T01:26:10.604Z,5.8
2018-12-12T01:27:10.583Z,6.8
2018-12-12T01:28:10.608Z,5.9
2018-12-12T01:29:10.584Z,7.9
2018-12-12T01:30:10.671Z,5.9
2018-12-12T01:31:10.831Z,7.5
2018-12-12T01:32:10.566Z,6.9
2018-12-12T01:33:10.593Z,6.2
2018-12-12T01:34:11.078Z,7.4
2018-12-12T01:35:11.047Z,6.4
2018-12-12T01:36:10.788Z,5.9
2018-12-12T01:37:10.998Z,6.7
2018-12-12T01:38:10.959Z,6.7
2018-12-12T01:39:10.573Z,7.4
2018-12-12T01:40:10.804Z,6.6
2018-12-12T01:41:11.056Z,6.6
2018-12-12T01:42:11.000Z,6.5
2018-12-12T01:43:10.651Z,6.6
2018-12-12T01:44:10.870Z,6.0
2018-12-12T01:45:10.684Z,6.6
2018-12-12T01:46:12.003Z,6.7
2018-12-12T01:47:10.657Z,5.9
2018-12-12T01:48:10.806Z,7.0
2018-12-12T01:49:10.780Z,7.2
2018-12-12T01:50:11.073Z,6.2
2018-12-12T01:51:10.643Z,7.4
2018-12-12T01:52:11.050Z,7.0
2018-12-12T01:53:10.807Z,6.2
2018-12-12T01:54:10.589Z,8.2
2018-12-12T01:55:10.675Z,6.9
2018-12-12T01:56:10.638Z,6.4
2018-12-12T01:57:11.040Z,7.2
2018-12-12T01:58:10.647Z,6.4
2018-12-12T01:59:10.623Z,7.7
2018-12-12T02:00:10.634Z,6.5
2018-12-12T02:01:10.601Z,6.5
2018-12-12T02:02:11.057Z,6.6
2018-12-12T02:03:10.635Z,7.6
2018-12-12T02:04:10.621Z,6.7
2018-12-12T02:05:10.611Z,7.1
2018-12-12T02:06:11.105Z,6.4
2018-12-12T02:07:10.636Z,6.8
2018-12-12T02:08:10.770Z,7.0
2018-12-12T02:09:10.642Z,6.7
2018-12-12T02:10:11.130Z,6.5
2018-12-12T02:11:11.056Z,6.6
2018-12-12T02:12:10.687Z,6.5
2018-12-12T02:13:11.106Z,6.1
2018-12-12T02:14:10.777Z,7.0
2018-12-12T02:15:11.064Z,6.0
2018-12-12T02:16:11.545Z,7.9
2018-12-12T02:17:11.123Z,7.6
2018-12-12T02:18:11.129Z,6.6
2018-12-12T02:19:10.686Z,7.1
2018-12-12T02:20:11.152Z,6.7
2018-12-12T02:21:10.705Z,7.3
2018-12-12T02:22:11.166Z,6.9
2018-12-12T02:23:11.173Z,6.8
2018-12-12T02:24:10.705Z,7.3
2018-12-12T02:25:11.112Z,6.4
2018-12-12T02:26:10.723Z,7.8
2018-12-12T02:27:11.162Z,7.3
2018-12-12T02:28:11.184Z,8.1
2018-12-12T02:29:11.170Z,6.4
2018-12-12T02:30:10.686Z,6.6
2018-12-12T02:31:11.167Z,8.1
2018-12-12T02:32:11.256Z,7.0
2018-12-12T02:33:11.217Z,6.5
2018-12-12T02:34:10.668Z,6.8
2018-12-12T02:35:10.698Z,7.2
2018-12-12T02:36:10.698Z,6.7
2018-12-12T02:37:10.721Z,6.8
2018-12-12T02:38:10.788Z,6.8
2018-12-12T02:39:10.704Z,7.6
2018-12-12T02:40:10.683Z,6.8
2018-12-12T02:41:10.742Z,7.0
2018-12-12T02:42:11.173Z,6.3
2018-12-12T02:43:11.179Z,6.9
2018-12-12T02:44:11.140Z,6.5
2018-12-12T02:45:11.157Z,6.2
2018-12-12T02:46:11.187Z,7.5
2018-12-12T02:47:10.722Z,6.7
2018-12-12T02:48:11.147Z,6.9
2018-12-12T02:49:11.741Z,6.6
2018-12-12T02:50:10.706Z,7.9
2018-12-12T02:51:11.178Z,7.6
2018-12-12T02:52:11.215Z,8.2
2018-12-12T02:53:10.764Z,7.1
2018-12-12T02:54:10.708Z,7.3
2018-12-12T02:55:11.171Z,7.4
2018-12-12T02:56:10.739Z,8.5
2018-12-12T02:57:11.176Z,7.7
2018-12-12T02:58:11.148Z,8.0
2018-12-12T02:59:11.377Z,7.5
2018-12-12T03:00:10.840Z,8.4
2018-12-12T03:01:10.795Z,7.1
2018-12-12T03:02:11.262Z,8.1
2018-12-12T03:03:10.739Z,7.7
2018-12-12T03:04:10.788Z,9.2
2018-12-12T03:05:10.777Z,6.9
2018-12-12T03:06:11.202Z,7.0
2018-12-12T03:07:11.184Z,7.6
2018-12-12T03:08:10.861Z,7.9
2018-12-12T03:09:10.720Z,8.0
2018-12-12T03:10:10.731Z,7.8
2018-12-12T03:11:11.282Z,9.9
2018-12-12T03:12:11.216Z,9.1
2018-12-12T03:13:10.776Z,7.4
2018-12-12T03:14:10.753Z,7.7
2018-12-12T03:15:11.217Z,7.7
2018-12-12T03:16:10.764Z,8.5
2018-12-12T03:17:10.996Z,9.8
2018-12-12T03:18:11.390Z,8.5
2018-12-12T03:19:10.812Z,8.7
2018-12-12T03:20:11.195Z,8.7
2018-12-12T03:21:10.811Z,9.3
2018-12-12T03:22:11.201Z,8.7
2018-12-12T03:23:11.229Z,8.3
2018-12-12T03:24:10.791Z,8.7
2018-12-12T03:25:11.206Z,8.0
2018-12-12T03:26:11.180Z,8.8
2018-12-12T03:27:10.742Z,8.5
2018-12-12T03:28:11.224Z,8.3
2018-12-12T03:29:10.958Z,8.1
2018-12-12T03:30:10.980Z,8.8
2018-12-12T03:31:11.074Z,9.2
2018-12-12T03:32:11.042Z,9.4
2018-12-12T03:33:11.041Z,9.0
2018-12-12T03:34:10.977Z,9.1
2018-12-12T03:35:10.775Z,9.3
2018-12-12T03:36:20.916Z,9.7
2018-12-12T03:37:10.740Z,8.9
2018-12-12T03:38:11.142Z,8.5
2018-12-12T03:39:10.784Z,8.7
2018-12-12T03:40:11.018Z,8.4
2018-12-12T03:41:11.030Z,8.5
2018-12-12T03:42:10.793Z,8.4
2018-12-12T03:43:11.047Z,9.0
2018-12-12T03:44:11.002Z,8.4
2018-12-12T03:45:10.891Z,9.6
2018-12-12T03:46:11.268Z,9.8
2018-12-12T03:47:10.869Z,8.5
2018-12-12T03:48:11.296Z,7.8
2018-12-12T03:49:10.790Z,8.0
2018-12-12T03:50:11.269Z,8.6
2018-12-12T03:51:10.857Z,8.8
2018-12-12T03:52:10.815Z,9.2
2018-12-12T03:53:10.932Z,8.4
2018-12-12T03:54:10.792Z,9.4
2018-12-12T03:55:11.028Z,8.4
2018-12-12T03:56:11.271Z,8.3
2018-12-12T03:57:11.074Z,8.7
2018-12-12T03:58:11.281Z,8.8
2018-12-12T03:59:10.870Z,9.0
2018-12-12T04:00:10.843Z,8.7
2018-12-12T04:01:11.302Z,8.8
2018-12-12T04:02:10.959Z,9.2
2018-12-12T04:03:11.003Z,9.4
2018-12-12T04:04:11.092Z,9.2
2018-12-12T04:05:10.834Z,8.9
2018-12-12T04:06:10.847Z,9.8
2018-12-12T04:07:10.910Z,8.7
2018-12-12T04:08:11.203Z,8.8
2018-12-12T04:09:11.247Z,8.9
2018-12-12T04:10:11.383Z,9.0
2018-12-12T04:11:11.024Z,8.3
2018-12-12T04:12:11.059Z,8.4
2018-12-12T04:13:11.095Z,8.5
2018-12-12T04:14:11.420Z,8.7
2018-12-12T04:15:11.269Z,8.4
2018-12-12T04:16:11.063Z,8.3
2018-12-12T04:17:12.030Z,8.2
2018-12-12T04:18:11.408Z,8.7
2018-12-12T04:19:11.094Z,8.2
2018-12-12T04:20:11.345Z,8.3
2018-12-12T04:21:11.338Z,8.7
2018-12-12T04:22:11.112Z,8.1
2018-12-12T04:23:11.195Z,8.7
2018-12-12T04:24:11.328Z,9.0
2018-12-12T04:25:10.924Z,9.3
2018-12-12T04:26:11.348Z,9.4
2018-12-12T04:27:11.083Z,8.2
2018-12-12T04:28:11.656Z,8.9
2018-12-12T04:29:10.877Z,9.5
2018-12-12T04:30:10.990Z,8.2
2018-12-12T04:31:10.915Z,8.1
2018-12-12T04:32:10.898Z,8.0
2018-12-12T04:33:11.435Z,7.9
2018-12-12T04:34:10.957Z,9.1
2018-12-12T04:35:10.951Z,7.5
2018-12-12T04:36:11.062Z,7.7
2018-12-12T04:37:11.406Z,8.2
2018-12-12T04:38:11.119Z,8.0
2018-12-12T04:39:10.952Z,6.9
2018-12-12T04:40:11.393Z,6.7
2018-12-12T04:41:10.973Z,6.7
2018-12-12T04:42:10.957Z,7.3
2018-12-12T04:43:11.364Z,6.6
2018-12-12T04:44:11.416Z,7.0
2018-12-12T04:45:11.358Z,7.0
2018-12-12T04:46:11.507Z,7.3
2018-12-12T04:47:11.348Z,6.9
2018-12-12T04:48:12.129Z,7.1
2018-12-12T04:49:11.378Z,7.3
2018-12-12T04:50:11.202Z,7.0
2018-12-12T04:51:10.984Z,7.2
2018-12-12T04:52:10.962Z,7.4
2018-12-12T04:53:11.368Z,6.5
2018-12-12T04:54:11.395Z,6.9
2018-12-12T04:55:11.355Z,6.9
2018-12-12T04:56:10.954Z,7.1
2018-12-12T04:57:10.894Z,7.2
2018-12-12T04:58:10.988Z,6.9
2018-12-12T04:59:11.147Z,7.2
2018-12-12T05:00:10.963Z,8.0
2018-12-12T05:01:11.433Z,6.7
2018-12-12T05:02:11.491Z,7.5
2018-12-12T05:03:10.961Z,7.2
2018-12-12T05:04:11.646Z,7.0
2018-12-12T05:05:11.383Z,6.8
2018-12-12T05:06:10.955Z,7.6
2018-12-12T05:07:11.187Z,6.8
2018-12-12T05:08:11.276Z,7.7
2018-12-12T05:09:10.958Z,7.7
2018-12-12T05:10:11.455Z,7.0
2018-12-12T05:11:11.124Z,6.8
2018-12-12T05:12:11.615Z,7.0
2018-12-12T05:13:11.169Z,6.9
2018-12-12T05:14:11.991Z,6.4
2018-12-12T05:15:11.201Z,6.5
2018-12-12T05:16:11.035Z,7.2
2018-12-12T05:17:11.202Z,7.1
2018-12-12T05:18:11.051Z,6.5
2018-12-12T05:19:11.074Z,7.2
2018-12-12T05:20:11.275Z,6.6
2018-12-12T05:21:10.964Z,7.0
2018-12-12T05:22:11.264Z,6.7
2018-12-12T05:23:11.192Z,7.1
2018-12-12T05:24:11.061Z,6.7
2018-12-12T05:25:11.472Z,6.9
2018-12-12T05:26:11.044Z,7.1
2018-12-12T05:27:10.977Z,6.7
2018-12-12T05:28:11.060Z,6.6
2018-12-12T05:29:11.031Z,6.5
2018-12-12T05:30:11.852Z,7.0
2018-12-12T05:31:11.473Z,6.7
2018-12-12T05:32:11.293Z,7.3
2018-12-12T05:33:11.017Z,7.5
2018-12-12T05:34:11.060Z,7.0
2018-12-12T05:35:11.034Z,6.9
2018-12-12T05:36:11.124Z,7.1
2018-12-12T05:37:11.044Z,7.4
2018-12-12T05:38:11.432Z,7.3
2018-12-12T05:39:11.473Z,7.2
2018-12-12T05:40:11.505Z,6.4
2018-12-12T05:41:11.038Z,6.9
2018-12-12T05:42:11.327Z,6.5
2018-12-12T05:43:11.248Z,6.9
2018-12-12T05:44:11.326Z,6.6
2018-12-12T05:45:11.457Z,6.9
2018-12-12T05:46:11.741Z,6.7
2018-12-12T05:47:11.053Z,7.0
2018-12-12T05:48:11.270Z,7.1
2018-12-12T05:49:11.053Z,7.6
2018-12-12T05:50:11.103Z,6.4
2018-12-12T05:51:11.103Z,6.9
2018-12-12T05:52:11.564Z,6.4
2018-12-12T05:53:11.391Z,6.3
2018-12-12T05:54:11.069Z,7.1
2018-12-12T05:55:11.251Z,7.5
2018-12-12T05:56:13.919Z,6.7
2018-12-12T05:57:11.274Z,6.3
2018-12-12T05:58:12.557Z,6.7
2018-12-12T05:59:11.500Z,7.3
2018-12-12T06:00:11.340Z,6.9
2018-12-12T06:01:11.490Z,7.0
2018-12-12T06:02:11.567Z,6.2
2018-12-12T06:03:11.503Z,6.9
2018-12-12T06:04:11.145Z,6.8
2018-12-12T06:05:11.108Z,6.4
2018-12-12T06:06:11.131Z,7.4
2018-12-12T06:07:11.575Z,6.6
2018-12-12T06:08:11.322Z,6.3
2018-12-12T06:09:11.317Z,6.6
2018-12-12T06:10:12.194Z,6.5
2018-12-12T06:11:11.162Z,6.7
2018-12-12T06:12:11.396Z,6.5
2018-12-12T06:13:11.105Z,6.1
2018-12-12T06:14:11.825Z,6.7
2018-12-12T06:15:11.518Z,6.6
2018-12-12T06:16:11.552Z,6.8
2018-12-12T06:17:11.321Z,7.1
2018-12-12T06:18:11.177Z,7.3
2018-12-12T06:19:11.131Z,6.8
2018-12-12T06:20:11.159Z,6.9
2018-12-12T06:21:11.098Z,7.3
2018-12-12T06:22:11.599Z,7.6
2018-12-12T06:23:11.199Z,6.8
2018-12-12T06:24:11.568Z,7.2
2018-12-12T06:25:11.640Z,7.0
2018-12-12T06:26:11.560Z,6.2
2018-12-12T06:27:11.214Z,7.2
2018-12-12T06:28:11.688Z,6.6
2018-12-12T06:29:11.744Z,7.1
2018-12-12T06:30:11.201Z,7.3
2018-12-12T06:31:11.171Z,7.6
2018-12-12T06:32:11.426Z,7.0
2018-12-12T06:33:11.171Z,7.5
2018-12-12T06:34:11.170Z,6.9
2018-12-12T06:35:11.293Z,7.1
2018-12-12T06:36:11.563Z,6.7
2018-12-12T06:37:11.609Z,8.1
2018-12-12T06:38:11.348Z,6.9
2018-12-12T06:39:11.348Z,7.1
2018-12-12T06:40:11.385Z,7.3
2018-12-12T06:41:11.307Z,8.1
2018-12-12T06:42:11.166Z,7.4
2018-12-12T06:43:11.621Z,6.8
2018-12-12T06:44:11.157Z,7.2
2018-12-12T06:45:11.676Z,6.8
2018-12-12T06:46:11.527Z,6.7
2018-12-12T06:47:11.320Z,6.5
2018-12-12T06:48:11.166Z,7.7
2018-12-12T06:49:11.161Z,6.9
2018-12-12T06:50:11.322Z,7.3
2018-12-12T06:51:11.596Z,6.7
2018-12-12T06:52:11.773Z,8.9
2018-12-12T06:53:11.618Z,7.5
2018-12-12T06:54:11.592Z,7.7
2018-12-12T06:55:11.355Z,7.2
2018-12-12T06:56:11.189Z,7.5
2018-12-12T06:57:11.251Z,8.0
2018-12-12T06:58:11.446Z,7.6
2018-12-12T06:59:11.238Z,7.8
2018-12-12T07:00:11.266Z,7.5
2018-12-12T07:01:11.165Z,8.0
2018-12-12T07:02:11.176Z,8.7
2018-12-12T07:03:11.212Z,8.4
2018-12-12T07:04:11.155Z,7.9
2018-12-12T07:05:11.625Z,8.7
2018-12-12T07:06:11.203Z,8.9
2018-12-12T07:07:11.950Z,8.6
2018-12-12T07:08:11.477Z,8.2
2018-12-12T07:09:11.630Z,8.0
2018-12-12T07:10:11.438Z,8.0
2018-12-12T07:11:11.190Z,9.3
2018-12-12T07:12:11.197Z,8.1
2018-12-12T07:13:11.235Z,8.1
2018-12-12T07:14:11.634Z,8.8
2018-12-12T07:15:11.179Z,8.1
2018-12-12T07:16:11.437Z,8.2
2018-12-12T07:17:11.631Z,8.7
2018-12-12T07:18:11.412Z,8.1
2018-12-12T07:19:11.201Z,8.7
2018-12-12T07:20:11.265Z,8.9
2018-12-12T07:21:11.164Z,8.5
2018-12-12T07:22:11.212Z,9.3
2018-12-12T07:23:11.478Z,8.4
2018-12-12T07:24:11.229Z,8.8
2018-12-12T07:25:11.220Z,8.6
2018-12-12T07:26:11.210Z,8.4
2018-12-12T07:27:11.214Z,8.9
2018-12-12T07:28:11.224Z,9.3
2018-12-12T07:29:11.640Z,9.0
2018-12-12T07:30:11.236Z,9.3
2018-12-12T07:31:11.442Z,9.3
2018-12-12T07:32:11.179Z,11.1
2018-12-12T07:33:11.204Z,9.5
2018-12-12T07:34:11.187Z,9.8
2018-12-12T07:35:11.483Z,8.9
2018-12-12T07:36:11.493Z,10.9
2018-12-12T07:37:11.258Z,9.0
2018-12-12T07:38:11.660Z,9.4
2018-12-12T07:39:17.720Z,9.3
2018-12-12T07:40:11.218Z,8.8
2018-12-12T07:41:11.657Z,9.8
2018-12-12T07:42:11.211Z,8.5
2018-12-12T07:43:11.241Z,8.2
2018-12-12T07:44:11.690Z,7.6
2018-12-12T07:45:11.270Z,7.4
2018-12-12T07:46:11.643Z,7.5
2018-12-12T07:47:12.110Z,7.8
2018-12-12T07:48:13.091Z,6.9
2018-12-12T07:49:12.119Z,7.3
2018-12-12T07:50:12.591Z,8.3
2018-12-12T07:51:12.269Z,7.8
2018-12-12T07:52:14.413Z,7.2
2018-12-12T07:53:13.743Z,8.1
2018-12-12T07:54:13.982Z,7.9
2018-12-12T07:55:13.128Z,9.6
2018-12-12T07:56:11.861Z,6.2
2018-12-12T07:57:12.369Z,6.5
2018-12-12T07:58:12.319Z,6.7
2018-12-12T07:59:11.274Z,7.8
2018-12-12T08:00:11.268Z,6.4
2018-12-12T08:01:11.532Z,7.6
2018-12-12T08:02:11.261Z,8.2
2018-12-12T08:03:11.344Z,7.2
2018-12-12T08:04:11.268Z,6.6
2018-12-12T08:05:11.555Z,6.5
2018-12-12T08:06:11.746Z,6.7
2018-12-12T08:07:11.273Z,6.1
2018-12-12T08:08:11.342Z,5.8
2018-12-12T08:09:11.783Z,6.2
2018-12-12T08:10:11.371Z,6.2
2018-12-12T08:11:11.460Z,5.3
2018-12-12T08:12:11.585Z,5.6
2018-12-12T08:13:11.390Z,5.4
2018-12-12T08:14:11.756Z,7.1
2018-12-12T08:15:11.372Z,5.3
2018-12-12T08:16:11.495Z,6.8
2018-12-12T08:17:21.533Z,5.9
2018-12-12T08:18:11.421Z,5.5
2018-12-12T08:19:11.725Z,6.3
2018-12-12T08:20:11.550Z,6.0
2018-12-12T08:21:11.754Z,8.0
2018-12-12T08:22:11.325Z,7.4
2018-12-12T08:23:11.442Z,5.8
2018-12-12T08:24:11.308Z,7.1
2018-12-12T08:25:11.398Z,6.2
2018-12-12T08:26:11.556Z,6.9
2018-12-12T08:27:12.341Z,6.1
2018-12-12T08:28:11.749Z,5.5
2018-12-12T08:29:11.294Z,5.3
2018-12-12T08:30:11.303Z,5.3
2018-12-12T08:31:11.558Z,5.0
2018-12-12T08:32:11.788Z,5.8
2018-12-12T08:33:11.635Z,4.9
2018-12-12T08:34:11.319Z,5.8
2018-12-12T08:35:11.546Z,5.0
2018-12-12T08:36:11.330Z,4.9
2018-12-12T08:37:11.944Z,5.3
2018-12-12T08:38:11.378Z,5.0
2018-12-12T08:39:11.805Z,5.0
2018-12-12T08:40:11.368Z,5.5
2018-12-12T08:41:12.055Z,9.9
2018-12-12T08:42:11.561Z,18.4
2018-12-12T08:43:11.317Z,13.7
2018-12-12T08:44:11.779Z,10.8
2018-12-12T08:45:12.036Z,12.0
2018-12-12T08:46:11.594Z,14.0
2018-12-12T08:47:11.391Z,18.5
2018-12-12T08:48:11.769Z,15.4
2018-12-12T08:49:11.574Z,12.6
2018-12-12T08:50:11.689Z,11.1
2018-12-12T08:51:11.410Z,11.4
2018-12-12T08:52:11.408Z,9.7
2018-12-12T08:53:11.867Z,8.6
2018-12-12T08:54:11.478Z,9.1
2018-12-12T08:55:17.333Z,8.2
2018-12-12T08:56:11.638Z,7.9
2018-12-12T08:57:11.659Z,7.2
2018-12-12T08:58:11.517Z,8.9
2018-12-12T08:59:11.373Z,7.5
2018-12-12T09:00:11.593Z,6.6
2018-12-12T09:01:11.390Z,7.1
2018-12-12T09:02:11.602Z,8.6
2018-12-12T09:03:17.301Z,6.4
2018-12-12T09:04:11.380Z,6.4
2018-12-12T09:05:11.844Z,6.4
2018-12-12T09:06:11.622Z,6.4
2018-12-12T09:07:11.388Z,6.3
2018-12-12T09:08:11.492Z,7.7
2018-12-12T09:09:11.416Z,6.3
2018-12-12T09:10:11.901Z,6.3
2018-12-12T09:11:11.445Z,4.9
2018-12-12T09:12:11.435Z,6.2
2018-12-12T09:13:11.849Z,5.9
2018-12-12T09:14:11.648Z,5.0
2018-12-12T09:15:11.469Z,5.5
2018-12-12T09:16:11.480Z,6.3
2018-12-12T09:17:12.214Z,4.5
2018-12-12T09:18:12.568Z,5.0
2018-12-12T09:19:11.689Z,5.2
2018-12-12T09:20:11.874Z,5.0
2018-12-12T09:21:11.494Z,5.9
2018-12-12T09:22:11.482Z,6.3
2018-12-12T09:23:11.623Z,4.6
2018-12-12T09:24:11.923Z,4.7
2018-12-12T09:25:11.640Z,7.0
2018-12-12T09:26:11.719Z,4.9
2018-12-12T09:27:11.535Z,4.8
2018-12-12T09:28:11.678Z,4.9
2018-12-12T09:29:11.746Z,5.4
2018-12-12T09:30:11.668Z,4.3
2018-12-12T09:31:11.508Z,4.1
2018-12-12T09:32:11.461Z,6.2
2018-12-12T09:33:11.948Z,4.7
2018-12-12T09:34:11.441Z,5.2
2018-12-12T09:35:11.440Z,4.4
2018-12-12T09:36:11.916Z,4.0
2018-12-12T09:37:11.406Z,5.4
2018-12-12T09:38:11.885Z,4.1
2018-12-12T09:39:11.909Z,3.7
2018-12-12T09:40:11.459Z,4.7
2018-12-12T09:41:11.527Z,4.5
2018-12-12T09:42:11.683Z,4.1
2018-12-12T09:43:11.615Z,4.3
2018-12-12T09:44:11.577Z,4.9
2018-12-12T09:45:11.549Z,3.7
2018-12-12T09:46:12.671Z,3.9
2018-12-12T09:47:11.674Z,4.3
2018-12-12T09:48:11.906Z,5.0
2018-12-12T09:49:11.569Z,4.3
2018-12-12T09:50:11.953Z,4.9
2018-12-12T09:51:11.955Z,3.3
2018-12-12T09:52:11.482Z,3.5
2018-12-12T09:53:11.547Z,5.5
2018-12-12T09:54:11.743Z,3.5
2018-12-12T09:55:11.916Z,4.4
2018-12-12T09:56:11.509Z,4.9
2018-12-12T09:57:12.057Z,4.1
2018-12-12T09:58:12.096Z,4.2
2018-12-12T09:59:11.948Z,3.4
2018-12-12T10:00:11.488Z,3.4
2018-12-12T10:01:11.937Z,3.1
2018-12-12T10:02:11.754Z,4.1
2018-12-12T10:03:11.541Z,5.0
2018-12-12T10:04:11.978Z,3.9
2018-12-12T10:05:11.713Z,3.0
2018-12-12T10:06:11.498Z,3.1
2018-12-12T10:07:11.731Z,5.6
2018-12-12T10:08:11.940Z,3.8
2018-12-12T10:09:11.522Z,3.2
2018-12-12T10:10:11.996Z,3.4
2018-12-12T10:11:11.685Z,3.4
2018-12-12T10:12:11.936Z,2.7
2018-12-12T10:13:11.536Z,3.3
2018-12-12T10:14:11.779Z,3.1
2018-12-12T10:15:11.541Z,3.3
2018-12-12T10:16:11.762Z,3.6
2018-12-12T10:17:11.808Z,3.2
2018-12-12T10:18:11.971Z,3.0
2018-12-12T10:19:11.547Z,4.8
2018-12-12T10:20:11.585Z,3.0
2018-12-12T10:21:11.584Z,3.2
2018-12-12T10:22:11.523Z,2.9
2018-12-12T10:23:11.645Z,3.1
2018-12-12T10:24:11.650Z,3.1
2018-12-12T10:25:11.741Z,3.0
2018-12-12T10:26:11.745Z,2.8
2018-12-12T10:27:11.540Z,2.5
2018-12-12T10:28:11.753Z,3.3
2018-12-12T10:29:12.026Z,2.6
2018-12-12T10:30:12.053Z,2.9
2018-12-12T10:31:11.673Z,3.1
2018-12-12T10:32:11.771Z,3.7
2018-12-12T10:33:11.674Z,2.5
2018-12-12T10:34:11.627Z,2.7
2018-12-12T10:35:11.729Z,2.4
2018-12-12T10:36:11.809Z,3.2
2018-12-12T10:37:11.606Z,2.6
2018-12-12T10:38:11.647Z,2.5
2018-12-12T10:39:11.589Z,2.7
2018-12-12T10:40:11.609Z,2.6
2018-12-12T10:41:11.578Z,2.9
2018-12-12T10:42:11.567Z,3.2
2018-12-12T10:43:11.682Z,3.7
2018-12-12T10:44:11.689Z,7.1
2018-12-12T10:45:11.592Z,6.3
2018-12-12T10:46:11.823Z,5.2
2018-12-12T10:47:13.176Z,4.3
2018-12-12T10:48:11.596Z,5.3
2018-12-12T10:49:11.556Z,4.4
2018-12-12T10:50:11.578Z,4.1
2018-12-12T10:51:12.026Z,3.3
2018-12-12T10:52:12.031Z,4.4
2018-12-12T10:53:12.089Z,3.6
2018-12-12T10:54:11.793Z,5.1
2018-12-12T10:55:11.747Z,4.0
2018-12-12T10:56:11.628Z,3.3
2018-12-12T10:57:11.635Z,4.1
2018-12-12T10:58:11.651Z,2.4
2018-12-12T10:59:11.632Z,4.5
2018-12-12T11:00:12.654Z,3.7
2018-12-12T11:01:11.766Z,3.2
2018-12-12T11:02:11.852Z,3.2
2018-12-12T11:03:12.046Z,2.5
2018-12-12T11:04:11.598Z,2.6
2018-12-12T11:05:11.600Z,2.9
2018-12-12T11:06:11.677Z,3.0
2018-12-12T11:07:12.112Z,2.7
2018-12-12T11:08:11.694Z,3.2
2018-12-12T11:09:11.618Z,2.0
2018-12-12T11:10:11.673Z,2.3
2018-12-12T11:11:12.034Z,2.1
2018-12-12T11:12:11.876Z,3.2
2018-12-12T11:13:11.605Z,3.4
2018-12-12T11:14:11.628Z,2.5
2018-12-12T11:15:12.058Z,2.5
2018-12-12T11:16:11.614Z,2.3
2018-12-12T11:17:11.630Z,2.0
2018-12-12T11:18:11.623Z,2.0
2018-12-12T11:19:11.641Z,2.2
2018-12-12T11:20:11.701Z,2.1
2018-12-12T11:21:11.665Z,3.3
2018-12-12T11:22:11.808Z,2.0
2018-12-12T11:23:11.705Z,2.1
2018-12-12T11:24:11.850Z,2.8
2018-12-12T11:25:11.677Z,3.4
2018-12-12T11:26:12.097Z,2.4
2018-12-12T11:27:11.822Z,1.7
2018-12-12T11:28:11.649Z,1.9
2018-12-12T11:29:11.719Z,2.3
2018-12-12T11:30:11.817Z,2.2
2018-12-12T11:31:12.102Z,2.3
2018-12-12T11:32:11.641Z,1.9
2018-12-12T11:33:11.653Z,2.3
2018-12-12T11:34:12.149Z,2.9
2018-12-12T11:35:11.897Z,2.7
2018-12-12T11:36:12.140Z,2.1
2018-12-12T11:37:11.653Z,2.1
2018-12-12T11:38:11.745Z,1.5
2018-12-12T11:39:11.657Z,2.0
2018-12-12T11:40:11.887Z,1.8
2018-12-12T11:41:11.732Z,1.9
2018-12-12T11:42:11.897Z,2.6
2018-12-12T11:43:12.105Z,2.0
2018-12-12T11:44:11.739Z,2.6
2018-12-12T11:45:11.640Z,1.8
2018-12-12T11:46:11.747Z,1.7
2018-12-12T11:47:11.695Z,2.0
2018-12-12T11:48:13.309Z,1.9
2018-12-12T11:49:11.670Z,2.7
2018-12-12T11:50:12.128Z,3.2
2018-12-12T11:51:11.672Z,1.9
2018-12-12T11:52:12.161Z,2.1
2018-12-12T11:53:11.742Z,2.1
2018-12-12T11:54:11.670Z,2.1
2018-12-12T11:55:11.762Z,2.1
2018-12-12T11:56:12.123Z,1.6
2018-12-12T11:57:11.691Z,2.2
2018-12-12T11:58:12.152Z,2.1
2018-12-12T11:59:11.884Z,2.1
2018-12-12T12:00:11.751Z,1.5
2018-12-12T12:01:11.903Z,1.6
2018-12-12T12:02:11.754Z,1.7
2018-12-12T12:03:11.672Z,1.6
2018-12-12T12:04:12.150Z,1.5
2018-12-12T12:05:12.169Z,1.7
2018-12-12T12:06:11.846Z,1.6
2018-12-12T12:07:11.724Z,2.0
2018-12-12T12:08:12.001Z,1.9
2018-12-12T12:09:11.651Z,1.7
2018-12-12T12:10:11.847Z,1.5
2018-12-12T12:11:12.209Z,1.7
2018-12-12T12:12:11.957Z,2.4
2018-12-12T12:13:13.298Z,1.6
2018-12-12T12:14:11.721Z,2.1
2018-12-12T12:15:11.908Z,2.1
2018-12-12T12:16:11.747Z,2.6
2018-12-12T12:17:11.995Z,2.7
2018-12-12T12:18:11.941Z,1.6
2018-12-12T12:19:12.023Z,3.3
2018-12-12T12:20:12.172Z,1.8
2018-12-12T12:21:17.632Z,2.1
2018-12-12T12:22:17.838Z,2.7
2018-12-12T12:23:21.096Z,4.2
2018-12-12T12:24:28.509Z,2.4
2018-12-12T12:25:30.646Z,2.5
2018-12-12T12:26:33.338Z,3.5
2018-12-12T12:27:38.484Z,3.5
2018-12-12T12:28:11.994Z,1.8
2018-12-12T12:29:32.146Z,2.8
2018-12-12T12:30:12.047Z,2.9
2018-12-12T12:31:11.892Z,3.4
2018-12-12T12:32:11.818Z,3.0
2018-12-12T12:33:11.773Z,2.2
2018-12-12T12:34:11.723Z,2.6
2018-12-12T12:35:12.244Z,2.7
2018-12-12T12:36:11.981Z,2.1
2018-12-12T12:37:11.819Z,2.7
2018-12-12T12:38:12.043Z,1.8
2018-12-12T12:39:11.807Z,2.0
2018-12-12T12:40:11.771Z,2.9
2018-12-12T12:41:11.968Z,2.7
2018-12-12T12:42:11.993Z,2.8
2018-12-12T12:43:12.007Z,2.9
2018-12-12T12:44:11.788Z,1.9
2018-12-12T12:45:11.956Z,2.1
2018-12-12T12:46:12.222Z,2.3
2018-12-12T12:47:11.784Z,1.7
2018-12-12T12:48:11.816Z,1.7
2018-12-12T12:49:13.421Z,1.8
2018-12-12T12:50:11.830Z,1.8
2018-12-12T12:51:12.202Z,2.0
2018-12-12T12:52:11.843Z,1.7
2018-12-12T12:53:12.046Z,1.9
2018-12-12T12:54:11.780Z,3.2
2018-12-12T12:55:11.997Z,2.9
2018-12-12T12:56:11.756Z,1.9
2018-12-12T12:57:11.970Z,2.4
2018-12-12T12:58:11.810Z,3.8
2018-12-12T12:59:11.764Z,1.7
2018-12-12T13:00:11.782Z,1.7
2018-12-12T13:01:12.350Z,1.8
2018-12-12T13:02:11.856Z,2.1
2018-12-12T13:03:11.858Z,1.7
2018-12-12T13:04:11.873Z,1.8
2018-12-12T13:05:11.827Z,1.6
2018-12-12T13:06:11.863Z,2.4
2018-12-12T13:07:12.045Z,2.9
2018-12-12T13:08:12.151Z,2.8
2018-12-12T13:09:12.305Z,2.1
2018-12-12T13:10:11.909Z,1.8
2018-12-12T13:11:14.681Z,1.8
2018-12-12T13:12:12.450Z,4.0
2018-12-12T13:13:12.388Z,2.1
2018-12-12T13:14:12.435Z,1.9
2018-12-12T13:15:12.334Z,2.6
2018-12-12T13:16:12.553Z,3.9
2018-12-12T13:17:12.420Z,2.7
2018-12-12T13:18:19.815Z,2.0
2018-12-12T13:19:14.670Z,2.5
2018-12-12T13:20:16.920Z,1.6
2018-12-12T13:21:13.733Z,2.6
2018-12-12T13:22:12.345Z,2.9
2018-12-12T13:23:11.922Z,1.8
2018-12-12T13:24:12.335Z,2.2
2018-12-12T13:25:11.868Z,1.7
2018-12-12T13:26:12.035Z,1.8
2018-12-12T13:27:12.022Z,1.4
2018-12-12T13:28:12.312Z,1.6
2018-12-12T13:29:12.287Z,1.9
2018-12-12T13:30:12.351Z,1.8
2018-12-12T13:31:12.314Z,1.7
2018-12-12T13:32:11.821Z,2.3
2018-12-12T13:33:11.874Z,4.7
2018-12-12T13:34:16.146Z,2.0
2018-12-12T13:35:12.422Z,1.6
2018-12-12T13:36:11.882Z,2.3
2018-12-12T13:37:11.855Z,1.8
2018-12-12T13:38:13.372Z,2.0
2018-12-12T13:39:11.952Z,1.5
2018-12-12T13:40:11.972Z,3.0
2018-12-12T13:41:12.303Z,1.9
2018-12-12T13:42:12.316Z,2.6
2018-12-12T13:43:12.156Z,2.1
2018-12-12T13:44:12.749Z,1.9
2018-12-12T13:45:12.327Z,1.5